CYOA

Ekati Airport

Ekati, Northwest Territories, Canada
METAR CYOA 211500Z 06004KT 15SM SKC M21/M25 A3005
Observed Flight Rules
Apr-21 @ 15:00 UTC (34 minutes ago) Visual Flight Rules
Wind Visibility Clouds
60° at 4 knots 15 miles
  • Clear skies
Temperatures Readings
Current -21°C / -6°F
Dewpoint -25°C / -13°F
Humidity 70%
Altimeter 30.05" Hg
Pressure 1018 hPa
Elevation 469
METAR CYOA 211500Z 06004KT 15SM SKC M21/M25 A3005
Observed Flight Rules
Apr-21 @ 15:00 UTC
(34 minutes ago)
VFR
Wind Visibility
60° at 4 knots 15 miles
Clouds
  • Clear skies
Temperature Dewpoint
-21°C / -6°F -25°C / -13°F
Humidity Altimeter Pressure
70% 30.05" Hg 1018 hPa